createdAt,value
2019-05-13T00:00:34.228Z,99.90
2019-05-13T00:03:03.604Z,99.90
2019-05-13T00:05:33.904Z,99.90
2019-05-13T00:08:03.526Z,99.90
2019-05-13T00:10:34.714Z,99.90
2019-05-13T00:13:04.432Z,99.90
2019-05-13T00:15:34.095Z,99.90
2019-05-13T00:18:04.033Z,99.90
2019-05-13T00:20:33.903Z,99.90
2019-05-13T00:23:03.833Z,99.90
2019-05-13T00:25:33.892Z,99.90
2019-05-13T00:28:04.023Z,99.90
2019-05-13T00:30:34.197Z,99.90
2019-05-13T00:33:03.867Z,99.90
2019-05-13T00:35:33.923Z,99.90
2019-05-13T00:38:03.928Z,99.90
2019-05-13T00:40:33.696Z,99.90
2019-05-13T00:43:03.900Z,99.90
2019-05-13T00:45:33.827Z,99.90
2019-05-13T00:48:04.632Z,99.90
2019-05-13T00:50:33.995Z,99.90
2019-05-13T00:53:04.434Z,99.90
2019-05-13T00:55:34.388Z,99.90
2019-05-13T00:58:04.692Z,99.90
2019-05-13T01:00:33.872Z,99.90
2019-05-13T01:03:03.995Z,99.90
2019-05-13T01:05:33.999Z,99.90
2019-05-13T01:08:04.299Z,99.90
2019-05-13T01:10:34.480Z,99.90
2019-05-13T01:13:04.755Z,99.90
2019-05-13T01:15:34.395Z,99.90
2019-05-13T01:18:04.053Z,99.90
2019-05-13T01:20:34.492Z,99.90
2019-05-13T01:23:03.658Z,99.90
2019-05-13T01:25:33.918Z,99.90
2019-05-13T01:28:04.488Z,99.90
2019-05-13T01:30:34.529Z,99.90
2019-05-13T01:33:04.429Z,99.90
2019-05-13T01:35:34.324Z,99.90
2019-05-13T01:38:04.500Z,99.90
2019-05-13T01:40:34.706Z,99.90
2019-05-13T01:43:03.871Z,99.90
2019-05-13T01:45:33.788Z,99.90
2019-05-13T01:48:07.250Z,99.90
2019-05-13T01:50:33.816Z,99.90
2019-05-13T01:53:04.301Z,99.90
2019-05-13T01:55:33.878Z,99.90
2019-05-13T01:58:04.536Z,99.90
2019-05-13T02:00:35.275Z,99.90
2019-05-13T02:03:04.164Z,99.90
2019-05-13T02:05:34.021Z,99.90
2019-05-13T02:08:04.500Z,99.90
2019-05-13T02:10:53.924Z,99.90
2019-05-13T02:13:24.548Z,99.90
2019-05-13T02:15:54.959Z,99.90
2019-05-13T02:18:24.353Z,99.90
2019-05-13T02:20:55.250Z,99.90
2019-05-13T02:23:24.264Z,99.90
2019-05-13T02:25:54.215Z,99.90
2019-05-13T02:28:24.832Z,99.90
2019-05-13T02:30:55.977Z,99.90
2019-05-13T02:33:24.413Z,99.90
2019-05-13T02:35:54.083Z,99.90
2019-05-13T02:38:29.517Z,99.90
2019-05-13T02:40:53.386Z,99.90
2019-05-13T02:43:23.768Z,99.90
2019-05-13T02:45:53.864Z,99.90
2019-05-13T02:48:23.522Z,99.90
2019-05-13T02:50:53.742Z,99.90
2019-05-13T02:53:23.731Z,99.90
2019-05-13T02:55:53.276Z,99.90
2019-05-13T02:58:24.199Z,99.90
2019-05-13T03:00:53.267Z,99.90
2019-05-13T03:03:23.306Z,99.90
2019-05-13T03:05:53.219Z,99.90
2019-05-13T03:08:38.552Z,99.90
2019-05-13T03:10:53.405Z,99.90
2019-05-13T03:13:23.670Z,99.90
2019-05-13T03:16:13.109Z,99.90
2019-05-13T03:18:43.643Z,99.90
2019-05-13T03:21:12.840Z,99.90
2019-05-13T03:23:43.992Z,99.90
2019-05-13T03:26:12.941Z,99.90
2019-05-13T03:28:43.570Z,99.90
2019-05-13T03:31:16.629Z,99.90
2019-05-13T03:33:46.134Z,99.90
2019-05-13T03:36:16.514Z,99.90
2019-05-13T03:38:59.358Z,99.90
2019-05-13T03:41:16.642Z,99.90
2019-05-13T03:43:45.887Z,99.90
2019-05-13T03:46:14.446Z,99.90
2019-05-13T03:48:43.228Z,99.90
2019-05-13T03:51:13.373Z,99.90
2019-05-13T03:53:43.340Z,99.90
2019-05-13T03:56:13.225Z,99.90
2019-05-13T03:58:43.317Z,99.90
2019-05-13T04:01:13.349Z,99.90
2019-05-13T04:03:43.828Z,99.90
2019-05-13T04:06:13.784Z,99.90
2019-05-13T04:08:43.739Z,99.90
2019-05-13T04:11:13.099Z,99.90
2019-05-13T04:13:43.002Z,99.90
2019-05-13T04:16:12.834Z,99.90
2019-05-13T04:18:42.822Z,99.90
2019-05-13T04:21:12.985Z,99.90
2019-05-13T04:23:42.756Z,99.90
2019-05-13T04:26:14.684Z,99.90
2019-05-13T04:28:43.535Z,99.90
2019-05-13T04:31:14.103Z,99.90
2019-05-13T04:33:43.070Z,99.90
2019-05-13T04:36:13.250Z,99.90
2019-05-13T04:38:44.225Z,99.90
2019-05-13T04:41:12.582Z,99.90
2019-05-13T04:43:43.743Z,99.90
2019-05-13T04:46:13.973Z,99.90
2019-05-13T04:48:44.163Z,99.90
2019-05-13T04:51:13.630Z,99.90
2019-05-13T04:53:42.668Z,99.90
2019-05-13T04:56:13.686Z,99.90
2019-05-13T04:58:42.807Z,99.90
2019-05-13T05:01:24.009Z,99.90
2019-05-13T05:04:22.627Z,99.90
2019-05-13T05:06:44.002Z,99.90
2019-05-13T05:09:32.931Z,99.90
2019-05-13T05:12:32.179Z,99.90
2019-05-13T05:15:06.522Z,99.90
2019-05-13T05:17:43.043Z,99.90
2019-05-13T05:20:28.851Z,99.90
2019-05-13T05:23:12.362Z,99.90
2019-05-13T05:25:52.690Z,99.90
2019-05-13T05:28:47.104Z,99.90
2019-05-13T05:31:24.714Z,99.90
2019-05-13T05:34:16.089Z,99.90
2019-05-13T05:37:03.020Z,99.90
2019-05-13T05:39:31.664Z,99.90
2019-05-13T05:42:02.163Z,99.90
2019-05-13T05:44:32.651Z,99.90
2019-05-13T05:47:04.038Z,99.90
2019-05-13T05:49:32.912Z,99.90
2019-05-13T05:52:04.459Z,99.90
2019-05-13T05:54:35.653Z,99.90
2019-05-13T05:57:05.413Z,99.70
2019-05-13T05:59:36.101Z,99.90
2019-05-13T06:02:06.117Z,99.90
2019-05-13T06:04:34.910Z,99.90
2019-05-13T06:07:03.859Z,99.90
2019-05-13T06:09:32.593Z,99.90
2019-05-13T06:12:01.931Z,99.90
2019-05-13T06:14:32.648Z,99.30
2019-05-13T06:17:02.659Z,99.10
2019-05-13T06:19:32.067Z,98.60
2019-05-13T06:22:02.236Z,98.50
2019-05-13T06:24:31.329Z,97.40
2019-05-13T06:27:01.566Z,96.70
2019-05-13T06:29:31.706Z,97.40
2019-05-13T06:32:15.175Z,97.30
2019-05-13T06:34:32.826Z,97.10
2019-05-13T06:37:01.964Z,96.00
2019-05-13T06:39:31.635Z,96.10
2019-05-13T06:42:02.828Z,96.30
2019-05-13T06:44:31.722Z,96.00
2019-05-13T06:47:02.460Z,95.60
2019-05-13T06:49:32.330Z,94.60
2019-05-13T06:52:01.753Z,94.90
2019-05-13T06:54:33.024Z,93.80
2019-05-13T06:57:04.283Z,93.10
2019-05-13T06:59:31.772Z,93.30
2019-05-13T07:02:02.086Z,92.20
2019-05-13T07:04:32.743Z,91.50
2019-05-13T07:07:10.099Z,91.70
2019-05-13T07:09:32.255Z,92.10
2019-05-13T07:12:03.077Z,91.80
2019-05-13T07:14:32.474Z,92.90
2019-05-13T07:17:02.078Z,92.00
2019-05-13T07:19:32.337Z,91.80
2019-05-13T07:22:02.715Z,91.40
2019-05-13T07:24:32.277Z,90.50
2019-05-13T07:27:02.089Z,90.70
2019-05-13T07:29:32.412Z,90.90
2019-05-13T07:32:01.915Z,90.30
2019-05-13T07:34:33.752Z,88.40
2019-05-13T07:37:02.202Z,88.40
2019-05-13T07:39:32.656Z,87.30
2019-05-13T07:42:05.103Z,85.60
2019-05-13T07:44:32.411Z,86.60
2019-05-13T07:47:03.319Z,84.40
2019-05-13T07:49:31.807Z,84.40
2019-05-13T07:52:01.525Z,84.70
2019-05-13T07:54:32.862Z,87.60
2019-05-13T07:57:01.873Z,86.00
2019-05-13T07:59:31.815Z,83.40
2019-05-13T08:02:02.011Z,83.20
2019-05-13T08:04:33.448Z,83.30
2019-05-13T08:07:02.075Z,83.10
2019-05-13T08:09:31.869Z,85.10
2019-05-13T08:12:10.129Z,85.30
2019-05-13T08:14:32.816Z,84.20
2019-05-13T08:17:02.622Z,84.80
2019-05-13T08:19:43.757Z,84.90
2019-05-13T08:22:12.280Z,82.00
2019-05-13T08:24:42.528Z,83.60
2019-05-13T08:27:11.810Z,83.50
2019-05-13T08:29:42.161Z,82.30
2019-05-13T08:32:11.273Z,84.20
2019-05-13T08:34:41.721Z,82.90
2019-05-13T08:37:11.397Z,83.50
2019-05-13T08:39:41.484Z,82.20
2019-05-13T08:42:15.914Z,78.50
2019-05-13T08:44:41.701Z,79.40
2019-05-13T08:47:12.038Z,80.20
2019-05-13T08:49:41.459Z,77.60
2019-05-13T08:52:12.036Z,74.00
2019-05-13T08:54:41.797Z,76.60
2019-05-13T08:57:11.815Z,76.30
2019-05-13T08:59:42.275Z,73.00
2019-05-13T09:02:11.566Z,63.00
2019-05-13T09:04:42.196Z,65.10
2019-05-13T09:07:12.177Z,68.70
2019-05-13T09:09:41.942Z,68.80
2019-05-13T09:12:11.575Z,65.20
2019-05-13T09:14:41.639Z,68.10
2019-05-13T09:17:12.036Z,70.40
2019-05-13T09:19:41.458Z,69.80
2019-05-13T09:22:12.366Z,72.20
2019-05-13T09:24:42.485Z,71.60
2019-05-13T09:27:12.067Z,68.40
2019-05-13T09:30:02.772Z,70.10
2019-05-13T09:32:31.793Z,72.00
2019-05-13T09:35:03.075Z,62.80
2019-05-13T09:37:31.685Z,64.10
2019-05-13T09:40:02.355Z,65.00
2019-05-13T09:42:47.637Z,65.40
2019-05-13T09:45:02.209Z,63.10
2019-05-13T09:47:32.181Z,63.10
2019-05-13T09:50:00.916Z,60.50
2019-05-13T09:52:31.728Z,58.10
2019-05-13T09:54:59.553Z,58.80
2019-05-13T09:57:28.178Z,56.10
2019-05-13T09:59:56.613Z,56.70
2019-05-13T10:02:25.065Z,51.70
2019-05-13T10:04:53.534Z,49.90
2019-05-13T10:07:22.916Z,53.00
2019-05-13T10:09:52.188Z,54.70
2019-05-13T10:12:24.267Z,53.40
2019-05-13T10:14:51.056Z,53.90
2019-05-13T10:17:21.935Z,52.90
2019-05-13T10:19:51.867Z,54.60
2019-05-13T10:22:21.890Z,54.50
2019-05-13T10:24:51.464Z,54.90
2019-05-13T10:27:22.339Z,55.00
2019-05-13T10:29:51.705Z,54.50
2019-05-13T10:32:22.026Z,54.00
2019-05-13T10:34:52.864Z,54.50
2019-05-13T10:37:22.228Z,53.30
2019-05-13T10:39:51.828Z,54.20
2019-05-13T10:42:22.172Z,51.40
2019-05-13T10:44:52.207Z,48.20
2019-05-13T10:47:22.733Z,49.50
2019-05-13T10:49:52.380Z,48.30
2019-05-13T10:52:22.872Z,48.90
2019-05-13T10:54:52.666Z,50.90
2019-05-13T10:57:21.341Z,52.00
2019-05-13T10:59:52.508Z,52.10
2019-05-13T11:02:22.195Z,50.10
2019-05-13T11:04:52.533Z,50.60
2019-05-13T11:07:22.537Z,49.00
2019-05-13T11:09:52.659Z,48.90
2019-05-13T11:12:22.206Z,50.70
2019-05-13T11:14:55.162Z,45.80
2019-05-13T11:17:31.425Z,46.50
2019-05-13T11:19:52.349Z,46.80
2019-05-13T11:22:22.499Z,44.30
2019-05-13T11:24:51.954Z,46.50
2019-05-13T11:27:23.238Z,46.40
2019-05-13T11:29:52.316Z,46.60
2019-05-13T11:32:22.244Z,47.10
2019-05-13T11:34:52.945Z,48.00
2019-05-13T11:37:23.131Z,46.40
2019-05-13T11:39:51.730Z,47.20
2019-05-13T11:42:22.702Z,48.40
2019-05-13T11:44:52.802Z,44.80
2019-05-13T11:47:20.687Z,42.30
2019-05-13T11:49:51.409Z,43.00
2019-05-13T11:52:19.385Z,42.10
2019-05-13T11:54:47.849Z,43.10
2019-05-13T11:57:16.281Z,44.40
2019-05-13T11:59:44.747Z,44.80
2019-05-13T12:02:13.954Z,45.50
2019-05-13T12:04:43.809Z,43.90
2019-05-13T12:07:13.326Z,44.80
2019-05-13T12:09:42.058Z,45.00
2019-05-13T12:12:13.236Z,43.90
2019-05-13T12:15:04.140Z,43.90
2019-05-13T12:17:14.111Z,44.00
2019-05-13T12:19:41.829Z,43.10
2019-05-13T12:22:13.051Z,39.10
2019-05-13T12:24:42.204Z,39.70
2019-05-13T12:27:10.987Z,41.50
2019-05-13T12:29:42.977Z,40.30
2019-05-13T12:32:13.446Z,40.00
2019-05-13T12:34:44.998Z,40.70
2019-05-13T12:37:12.212Z,40.60
2019-05-13T12:39:43.762Z,41.50
2019-05-13T12:42:12.742Z,41.70
2019-05-13T12:44:59.801Z,40.80
2019-05-13T12:47:12.206Z,39.00
2019-05-13T12:49:43.774Z,39.40
2019-05-13T12:52:13.002Z,37.60
2019-05-13T12:54:43.756Z,37.00
2019-05-13T12:57:15.028Z,38.10
2019-05-13T12:59:43.554Z,31.40
2019-05-13T13:04:34.704Z,35.70
2019-05-13T13:07:03.137Z,40.40
2019-05-13T13:09:33.413Z,41.10
2019-05-13T13:12:01.843Z,42.50
2019-05-13T13:14:38.431Z,42.00
2019-05-13T13:17:04.122Z,43.10
2019-05-13T13:19:33.988Z,40.60
2019-05-13T13:22:04.615Z,40.20
2019-05-13T13:24:31.862Z,40.10
2019-05-13T13:27:00.465Z,38.00
2019-05-13T13:29:28.907Z,38.90
2019-05-13T13:31:57.372Z,38.70
2019-05-13T13:34:26.531Z,37.70
2019-05-13T13:36:55.329Z,38.30
2019-05-13T13:39:25.498Z,39.00
2019-05-13T13:41:54.134Z,39.30
2019-05-13T13:44:24.786Z,40.10
2019-05-13T13:46:54.792Z,42.30
2019-05-13T13:49:23.459Z,41.20
2019-05-13T13:51:52.038Z,41.80
2019-05-13T13:54:22.373Z,42.00
2019-05-13T13:56:55.955Z,42.40
2019-05-13T13:59:24.548Z,43.10
2019-05-13T14:01:54.821Z,42.50
2019-05-13T14:04:21.746Z,41.80
2019-05-13T14:09:22.418Z,43.30
2019-05-13T14:11:51.562Z,43.30
2019-05-13T14:14:21.563Z,43.00
2019-05-13T14:16:51.811Z,43.70
2019-05-13T14:19:21.851Z,45.60
2019-05-13T14:21:52.456Z,44.10
2019-05-13T14:24:21.607Z,43.60
2019-05-13T14:26:52.391Z,43.90
2019-05-13T14:29:21.333Z,42.60
2019-05-13T14:31:52.189Z,43.80
2019-05-13T14:34:20.835Z,41.80
2019-05-13T14:36:51.621Z,42.70
2019-05-13T14:39:19.523Z,43.60
2019-05-13T14:41:47.986Z,43.40
2019-05-13T14:44:16.825Z,43.50
2019-05-13T14:46:47.865Z,43.00
2019-05-13T14:49:15.461Z,42.50
2019-05-13T14:51:43.895Z,40.30
2019-05-13T14:54:12.431Z,39.50
2019-05-13T14:56:42.024Z,39.40
2019-05-13T14:59:11.686Z,39.50
2019-05-13T15:01:41.376Z,40.00
2019-05-13T15:04:12.196Z,42.00
2019-05-13T15:06:41.571Z,41.10
2019-05-13T15:09:12.579Z,41.30
2019-05-13T15:11:41.857Z,41.50
2019-05-13T15:14:11.678Z,42.30
2019-05-13T15:16:42.456Z,42.90
2019-05-13T15:19:11.995Z,41.70
2019-05-13T15:21:41.305Z,41.30
2019-05-13T15:24:12.419Z,42.40
2019-05-13T15:26:42.247Z,41.30
2019-05-13T15:29:11.380Z,43.60
2019-05-13T15:31:42.109Z,44.40
2019-05-13T15:34:10.501Z,43.30
2019-05-13T15:36:38.937Z,44.00
2019-05-13T15:39:07.729Z,44.40
2019-05-13T15:41:38.372Z,46.00
2019-05-13T15:44:06.902Z,45.80
2019-05-13T15:46:35.416Z,46.50
2019-05-13T15:49:03.879Z,45.00
2019-05-13T15:51:32.392Z,44.50
2019-05-13T15:54:02.320Z,44.50
2019-05-13T15:56:31.641Z,45.10
2019-05-13T15:59:01.975Z,44.20
2019-05-13T16:01:30.431Z,44.30
2019-05-13T16:03:58.895Z,45.00
2019-05-13T16:06:27.339Z,44.40
2019-05-13T16:08:55.809Z,44.40
2019-05-13T16:11:24.610Z,45.20
2019-05-13T16:13:53.138Z,44.80
2019-05-13T16:16:22.198Z,44.00
2019-05-13T16:18:51.664Z,44.30
2019-05-13T16:21:20.280Z,44.60
2019-05-13T16:23:48.762Z,44.90
2019-05-13T16:26:17.207Z,46.50
2019-05-13T16:28:45.642Z,46.00
2019-05-13T16:31:14.287Z,45.90
2019-05-13T16:33:42.758Z,46.20
2019-05-13T16:36:12.657Z,46.60
2019-05-13T16:38:41.866Z,46.50
2019-05-13T16:41:12.466Z,46.80
2019-05-13T16:43:42.590Z,47.50
2019-05-13T16:46:12.207Z,47.00
2019-05-13T16:48:41.563Z,48.00
2019-05-13T16:51:12.578Z,48.20
2019-05-13T16:53:42.170Z,48.80
2019-05-13T16:56:25.634Z,49.50
2019-05-13T16:58:41.941Z,49.40
2019-05-13T17:01:11.837Z,49.20
2019-05-13T17:03:41.453Z,48.50
2019-05-13T17:06:12.482Z,48.10
2019-05-13T17:08:42.519Z,48.50
2019-05-13T17:11:11.884Z,48.50
2019-05-13T17:13:42.244Z,48.70
2019-05-13T17:16:11.005Z,49.50
2019-05-13T17:18:41.722Z,50.30
2019-05-13T17:21:09.809Z,51.90
2019-05-13T17:23:38.250Z,52.30
2019-05-13T17:26:06.958Z,52.50
2019-05-13T17:28:35.385Z,53.40
2019-05-13T17:31:03.855Z,54.40
2019-05-13T17:33:32.418Z,54.00
2019-05-13T17:36:01.856Z,54.00
2019-05-13T17:38:32.237Z,54.60
2019-05-13T17:41:02.204Z,54.90
2019-05-13T17:43:32.045Z,55.40
2019-05-13T17:46:01.234Z,54.90
2019-05-13T17:48:32.812Z,55.70
2019-05-13T17:51:03.277Z,56.30
2019-05-13T17:53:32.460Z,57.10
2019-05-13T17:56:02.465Z,57.00
2019-05-13T17:58:31.583Z,57.20
2019-05-13T18:01:01.742Z,57.10
2019-05-13T18:03:32.118Z,57.40
2019-05-13T18:06:02.432Z,57.00
2019-05-13T18:08:31.974Z,57.50
2019-05-13T18:11:02.225Z,57.10
2019-05-13T18:13:31.747Z,57.20
2019-05-13T18:16:02.543Z,57.40
2019-05-13T18:18:40.543Z,57.20
2019-05-13T18:21:01.453Z,56.50
2019-05-13T18:23:30.293Z,56.20
2019-05-13T18:25:58.735Z,56.20
2019-05-13T18:28:31.075Z,56.70
2019-05-13T18:30:57.426Z,56.60
2019-05-13T18:33:25.893Z,56.50
2019-05-13T18:35:54.323Z,56.30
2019-05-13T18:38:22.782Z,56.30
2019-05-13T18:40:52.638Z,57.00
2019-05-13T18:43:21.669Z,57.00
2019-05-13T18:45:52.610Z,56.80
2019-05-13T18:48:21.907Z,56.50
2019-05-13T18:50:52.337Z,56.50
2019-05-13T18:53:21.543Z,57.00
2019-05-13T18:55:52.450Z,57.40
2019-05-13T18:58:22.308Z,57.60
2019-05-13T19:00:52.297Z,57.50
2019-05-13T19:03:21.763Z,57.70
2019-05-13T19:05:50.434Z,58.00
2019-05-13T19:08:21.284Z,58.40
2019-05-13T19:10:49.147Z,59.40
2019-05-13T19:13:17.592Z,60.50
2019-05-13T19:15:46.054Z,61.20
2019-05-13T19:18:14.538Z,63.20
2019-05-13T19:20:43.081Z,65.60
2019-05-13T19:23:11.906Z,67.50
2019-05-13T19:25:42.718Z,69.20
2019-05-13T19:28:11.824Z,70.50
2019-05-13T19:30:41.159Z,71.60
2019-05-13T19:33:11.964Z,72.70
2019-05-13T19:35:42.415Z,73.70
2019-05-13T19:38:12.148Z,73.60
2019-05-13T19:40:41.932Z,74.30
2019-05-13T19:43:11.636Z,76.00
2019-05-13T19:45:41.649Z,76.30
2019-05-13T19:48:11.860Z,76.50
2019-05-13T19:50:41.642Z,77.20
2019-05-13T19:53:12.050Z,77.90
2019-05-13T19:55:41.456Z,79.00
2019-05-13T19:58:12.334Z,80.30
2019-05-13T20:00:42.312Z,81.20
2019-05-13T20:03:11.858Z,81.80
2019-05-13T20:05:41.898Z,82.50
2019-05-13T20:08:10.450Z,82.90
2019-05-13T20:10:38.989Z,83.50
2019-05-13T20:13:07.471Z,83.80
2019-05-13T20:15:35.907Z,84.00
2019-05-13T20:18:04.346Z,84.80
2019-05-13T20:20:32.927Z,85.00
2019-05-13T20:23:01.752Z,84.70
2019-05-13T20:25:31.223Z,85.10
2019-05-13T20:28:02.134Z,85.60
2019-05-13T20:30:30.278Z,85.90
2019-05-13T20:32:58.747Z,85.90
2019-05-13T20:35:27.190Z,86.30
2019-05-13T20:37:55.648Z,86.40
2019-05-13T20:40:24.107Z,86.40
2019-05-13T20:42:52.566Z,86.60
2019-05-13T20:45:22.462Z,87.60
2019-05-13T20:47:51.103Z,88.00
2019-05-13T20:50:41.042Z,88.40
2019-05-13T20:53:11.367Z,89.20
2019-05-13T20:55:41.491Z,89.90
2019-05-13T20:58:12.501Z,90.40
2019-05-13T21:00:42.011Z,90.80
2019-05-13T21:03:11.769Z,91.00
2019-05-13T21:05:41.558Z,91.40
2019-05-13T21:08:10.332Z,91.70
2019-05-13T21:10:38.863Z,91.80
2019-05-13T21:13:07.295Z,92.00
2019-05-13T21:15:35.841Z,92.20
2019-05-13T21:18:04.441Z,92.40
2019-05-13T21:20:32.878Z,92.50
2019-05-13T21:23:02.301Z,92.50
2019-05-13T21:25:31.177Z,92.70
2019-05-13T21:28:01.981Z,92.90
2019-05-13T21:30:30.042Z,92.80
2019-05-13T21:32:58.509Z,93.10
2019-05-13T21:35:27.013Z,93.10
2019-05-13T21:37:55.467Z,93.20
2019-05-13T21:40:23.983Z,93.30
2019-05-13T21:42:52.809Z,93.50
2019-05-13T21:45:21.439Z,93.80
2019-05-13T21:47:49.904Z,94.00
2019-05-13T21:50:31.088Z,94.00
2019-05-13T21:52:48.609Z,94.00
2019-05-13T21:55:17.074Z,94.00
2019-05-13T21:57:45.500Z,94.20
2019-05-13T22:00:16.157Z,94.40
2019-05-13T22:02:44.580Z,94.50
2019-05-13T22:05:13.349Z,94.70
2019-05-13T22:07:42.208Z,94.70
2019-05-13T22:10:11.179Z,94.90
2019-05-13T22:12:41.498Z,95.10
2019-05-13T22:15:10.509Z,95.10
2019-05-13T22:17:39.023Z,95.40
2019-05-13T22:20:08.085Z,95.30
2019-05-13T22:22:36.533Z,95.40
2019-05-13T22:25:06.781Z,95.30
2019-05-13T22:27:35.375Z,95.40
2019-05-13T22:30:06.425Z,95.80
2019-05-13T22:32:34.887Z,95.90
2019-05-13T22:35:03.457Z,96.10
2019-05-13T22:37:31.922Z,96.20
2019-05-13T22:40:01.604Z,96.30
2019-05-13T22:42:32.238Z,96.50
2019-05-13T22:45:02.865Z,97.10
2019-05-13T22:47:31.473Z,96.90
2019-05-13T22:50:02.014Z,96.90
2019-05-13T22:52:31.286Z,96.80
2019-05-13T22:55:02.276Z,96.90
2019-05-13T22:57:31.350Z,97.00
2019-05-13T23:00:00.023Z,96.90
2019-05-13T23:02:28.598Z,97.10
2019-05-13T23:04:57.319Z,97.00
2019-05-13T23:07:25.903Z,96.90
2019-05-13T23:09:54.372Z,97.00
2019-05-13T23:12:22.862Z,97.20
2019-05-13T23:14:52.048Z,97.30
2019-05-13T23:17:21.585Z,97.30
2019-05-13T23:19:52.289Z,97.40
2019-05-13T23:22:20.373Z,97.30
2019-05-13T23:24:48.827Z,97.40
2019-05-13T23:27:17.344Z,97.50
2019-05-13T23:29:45.847Z,97.50
2019-05-13T23:32:14.356Z,97.70
2019-05-13T23:34:42.842Z,97.70
2019-05-13T23:37:11.558Z,97.90
2019-05-13T23:39:41.711Z,98.00
2019-05-13T23:42:12.102Z,98.00
2019-05-13T23:44:41.549Z,98.00
2019-05-13T23:47:11.427Z,98.00
2019-05-13T23:49:42.069Z,98.10
2019-05-13T23:52:11.624Z,98.20
2019-05-13T23:54:42.458Z,98.30
2019-05-13T23:57:11.715Z,98.60
2019-05-13T23:59:42.055Z,98.70
